Terminal Aerodrome Forecast
Issued by NWS Corpus Christi, TX

Current Version | Previous Version | Text Only | Print | Product List | Glossary Off
Versions: 1 2 3 4 5 6 7 8 9 10 11 12 13 14

000
FTUS44 KCRP 231500 AAA
TAFCRP
TAF AMD
KCRP 231501Z 2315/2412 04012KT P6SM FEW030 BKN150 BKN250
     FM231800 07014KT P6SM SCT035 BKN100
     FM240400 VRB03KT P6SM SCT150=

USA.gov is the U.S. government's official web portal to all federal, state and local government web resources and services.